Time;durP1;ratioP1;P1;durP2;ratioP2;P2;SDS_P1;SDS_P2;PMS_P1;PMS_P2;Temp;Humidity;BMP_temperature;BMP_pressure;BME280_temperature;BME280_humidity;BME280_pressure;Samples;Min_cycle;Max_cycle;Signal;HPM_P1;HPM_P2
2023/05/05 00:01:10;;;;;;;10.48;4.90;;;11.90;99.90;;;;;;5072357;28;20059;-58
2023/05/05 00:03:36;;;;;;;11.05;4.57;;;11.80;99.90;;;;;;5072469;28;20040;-58
2023/05/05 00:06:03;;;;;;;9.68;4.32;;;11.80;99.90;;;;;;5072456;28;20051;-59
2023/05/05 00:08:28;;;;;;;9.52;4.32;;;11.80;99.90;;;;;;5072349;28;20044;-59
2023/05/05 00:10:55;;;;;;;9.00;4.88;;;11.80;99.90;;;;;;5070863;28;20123;-59
2023/05/05 00:13:21;;;;;;;9.25;4.72;;;11.70;99.90;;;;;;5072199;28;20059;-58
2023/05/05 00:15:48;;;;;;;11.90;4.15;;;11.70;99.90;;;;;;5071856;28;20128;-58
2023/05/05 00:18:16;;;;;;;8.35;4.35;;;11.70;99.90;;;;;;5071795;28;20465;-59
2023/05/05 00:20:42;;;;;;;12.00;4.10;;;11.70;99.90;;;;;;5072769;28;20120;-58
2023/05/05 00:23:08;;;;;;;8.77;4.40;;;11.60;99.90;;;;;;5076102;28;20032;-58
2023/05/05 00:25:34;;;;;;;9.75;4.25;;;11.60;99.90;;;;;;5075796;28;20390;-58
2023/05/05 00:28:00;;;;;;;7.05;4.47;;;11.60;99.90;;;;;;5075983;28;20037;-58
2023/05/05 00:30:26;;;;;;;10.02;4.38;;;11.60;99.90;;;;;;5076087;28;20040;-58
2023/05/05 00:32:53;;;;;;;12.35;4.95;;;11.60;99.90;;;;;;5075899;28;20432;-58
2023/05/05 00:35:19;;;;;;;11.35;4.72;;;11.50;99.90;;;;;;5076007;28;20394;-58
2023/05/05 00:37:45;;;;;;;8.93;4.10;;;11.40;99.90;;;;;;5074254;28;20083;-58
2023/05/05 00:40:12;;;;;;;11.48;5.13;;;11.50;99.90;;;;;;5075963;28;20060;-59
2023/05/05 00:42:42;;;;;;;9.95;4.50;;;11.50;99.90;;;;;;5075525;28;20044;-59
2023/05/05 00:45:09;;;;;;;8.48;4.80;;;11.50;99.90;;;;;;5074281;28;20105;-59
2023/05/05 00:47:35;;;;;;;9.07;4.53;;;11.40;99.90;;;;;;5075373;28;20093;-59
2023/05/05 00:50:08;;;;;;;8.18;4.30;;;11.40;99.90;;;;;;5075625;28;20089;-59
2023/05/05 00:52:37;;;;;;;7.82;4.32;;;11.40;99.90;;;;;;5075235;28;20047;-59
2023/05/05 00:55:04;;;;;;;11.85;5.03;;;11.40;99.90;;;;;;5075139;28;20041;-59
2023/05/05 00:57:31;;;;;;;10.77;4.95;;;11.40;99.90;;;;;;5074932;28;20094;-59
2023/05/05 00:59:58;;;;;;;9.20;4.38;;;11.30;99.90;;;;;;5075172;28;20043;-59
2023/05/05 01:02:24;;;;;;;8.95;4.60;;;11.40;99.90;;;;;;5107588;28;20491;-60
2023/05/05 01:04:50;;;;;;;13.77;4.63;;;11.40;99.90;;;;;;5074921;28;20035;-59
2023/05/05 01:07:45;;;;;;;7.10;4.35;;;11.30;99.90;;;;;;5074995;28;20064;-59
2023/05/05 01:10:32;;;;;;;11.75;5.47;;;11.30;99.90;;;;;;5074821;28;20493;-63
2023/05/05 01:13:15;;;;;;;9.23;4.40;;;11.30;99.90;;;;;;5074538;28;20078;-58
2023/05/05 01:15:50;;;;;;;8.02;4.90;;;11.30;99.90;;;;;;5074766;28;20083;-59
2023/05/05 01:18:51;;;;;;;12.15;4.85;;;11.30;99.90;;;;;;5073710;28;20406;-59
2023/05/05 01:21:28;;;;;;;10.52;5.05;;;11.20;99.90;;;;;;5072696;28;20045;-59
2023/05/05 01:24:24;;;;;;;9.40;4.50;;;11.20;99.90;;;;;;5072686;28;20083;-59
2023/05/05 01:27:09;;;;;;;8.73;4.60;;;11.20;99.90;;;;;;5055840;28;20051;-59
2023/05/05 01:29:56;;;;;;;8.15;4.80;;;11.20;99.90;;;;;;5072427;28;20049;-59
2023/05/05 07:28:03;;;;;;;11.00;6.68;;;13.80;99.90;;;;;;5072843;28;20132;-58
2023/05/05 07:30:29;;;;;;;12.65;6.20;;;14.40;99.90;;;;;;5071939;28;20111;-59
2023/05/05 07:32:55;;;;;;;9.32;6.20;;;14.80;99.90;;;;;;5072617;28;20132;-59
2023/05/05 07:35:21;;;;;;;16.45;6.55;;;15.20;99.90;;;;;;5072616;28;20032;-59
2023/05/05 07:37:48;;;;;;;9.43;6.15;;;15.40;99.90;;;;;;5072335;28;20037;-59
2023/05/05 07:40:14;;;;;;;7.90;5.45;;;15.70;99.90;;;;;;5071145;28;20098;-59
2023/05/05 07:42:39;;;;;;;6.78;5.75;;;16.00;99.90;;;;;;5118378;27;20039;-58
2023/05/05 07:45:06;;;;;;;8.65;5.78;;;16.10;99.90;;;;;;5092734;28;20035;-59
2023/05/05 07:47:32;;;;;;;10.38;5.55;;;16.40;99.90;;;;;;5091507;28;20478;-57
2023/05/05 07:49:57;;;;;;;8.63;6.15;;;16.80;99.90;;;;;;5092824;28;20105;-57
2023/05/05 07:52:23;;;;;;;9.35;6.05;;;16.70;99.90;;;;;;5092768;28;20040;-57
2023/05/05 07:54:49;;;;;;;7.43;5.53;;;16.70;99.90;;;;;;5092525;28;20048;-57
2023/05/05 07:57:15;;;;;;;16.48;6.38;;;16.70;99.90;;;;;;5092795;28;20043;-57
2023/05/05 07:59:42;;;;;;;10.38;5.90;;;16.80;99.90;;;;;;5092447;28;20478;-57
2023/05/05 08:02:12;;;;;;;10.55;6.30;;;16.80;99.90;;;;;;5092646;28;20040;-57
2023/05/05 08:04:39;;;;;;;8.98;6.22;;;16.80;99.90;;;;;;5092759;28;20035;-57
2023/05/05 08:07:04;;;;;;;13.50;6.70;;;16.60;99.90;;;;;;5092487;28;20032;-57
2023/05/05 08:09:30;;;;;;;11.95;6.50;;;16.80;99.90;;;;;;5092652;28;20119;-57
2023/05/05 08:11:56;;;;;;;11.43;6.60;;;16.90;99.90;;;;;;5092401;28;20043;-57
2023/05/05 08:14:21;;;;;;;14.05;6.55;;;17.50;99.90;;;;;;5092299;28;20043;-57
2023/05/05 08:16:47;;;;;;;17.60;6.15;;;17.50;99.90;;;;;;5092431;28;20032;-57
2023/05/05 08:19:12;;;;;;;10.25;6.00;;;17.90;99.90;;;;;;5092471;28;20079;-58
2023/05/05 08:21:38;;;;;;;8.95;6.75;;;17.90;99.90;;;;;;5092603;28;20040;-58
2023/05/05 08:24:04;;;;;;;9.95;5.97;;;18.20;99.90;;;;;;5092690;28;20119;-58
2023/05/05 08:26:29;;;;;;;8.45;6.13;;;18.00;99.90;;;;;;5092001;28;20525;-60
2023/05/05 08:28:59;;;;;;;12.85;6.80;;;18.20;99.90;;;;;;5092340;28;20048;-59
2023/05/05 08:31:31;;;;;;;10.63;6.50;;;18.50;99.90;;;;;;5092038;28;20549;-60
2023/05/05 08:33:56;;;;;;;11.45;6.22;;;18.60;99.90;;;;;;5090987;28;20435;-60
2023/05/05 08:36:22;;;;;;;10.93;6.78;;;18.80;99.90;;;;;;5092412;28;20032;-60
2023/05/05 08:38:48;;;;;;;9.98;6.65;;;19.10;99.90;;;;;;5092681;28;20119;-60
2023/05/05 08:41:16;;;;;;;8.30;6.63;;;19.00;99.90;;;;;;5091826;28;20390;-61
2023/05/05 08:43:45;;;;;;;10.05;7.30;;;19.00;99.90;;;;;;5095965;28;20036;-60
2023/05/05 08:46:13;;;;;;;11.30;7.00;;;19.00;99.90;;;;;;5095946;28;20068;-60
2023/05/05 08:48:41;;;;;;;9.63;6.68;;;18.80;99.90;;;;;;5092356;28;21329;-60
2023/05/05 08:51:09;;;;;;;8.75;6.57;;;19.40;99.90;;;;;;5091681;28;20544;-59
2023/05/05 08:54:01;;;;;;;10.13;6.72;;;19.50;99.90;;;;;;5095272;28;20101;-59
2023/05/05 08:56:32;;;;;;;10.23;7.07;;;19.50;99.90;;;;;;5089556;28;20052;-60
2023/05/05 08:59:00;;;;;;;12.68;7.05;;;20.00;99.90;;;;;;5093989;28;20044;-60
2023/05/05 09:01:26;;;;;;;8.05;7.22;;;20.20;99.90;;;;;;5095879;28;20060;-57
2023/05/05 09:03:52;;;;;;;9.13;6.70;;;20.10;99.90;;;;;;5095705;28;20028;-58
2023/05/05 09:06:22;;;;;;;9.25;6.97;;;20.40;99.90;;;;;;5096166;28;20040;-57
2023/05/05 09:08:48;;;;;;;10.73;7.13;;;20.40;99.90;;;;;;5095785;28;20059;-59
2023/05/05 09:11:14;;;;;;;12.68;7.20;;;20.40;99.90;;;;;;5095872;28;20040;-59
2023/05/05 09:13:40;;;;;;;12.15;6.90;;;20.50;99.90;;;;;;5095999;28;20039;-59
2023/05/05 09:16:06;;;;;;;11.93;7.43;;;20.90;99.90;;;;;;5095524;28;20047;-59
2023/05/05 09:18:32;;;;;;;9.57;6.85;;;20.90;99.90;;;;;;5095366;28;20043;-59
2023/05/05 09:20:58;;;;;;;10.27;7.72;;;21.20;99.90;;;;;;5095425;28;20455;-59
2023/05/05 09:23:23;;;;;;;8.90;8.07;;;21.40;99.90;;;;;;5091567;28;20115;-59
2023/05/05 09:26:09;;;;;;;10.02;7.75;;;21.50;99.90;;;;;;5095404;28;20083;-59
2023/05/05 09:28:36;;;;;;;10.20;8.25;;;21.40;99.90;;;;;;5094018;28;20076;-59
2023/05/05 09:31:12;;;;;;;9.13;7.63;;;21.60;99.90;;;;;;5094163;28;20036;-59
2023/05/05 09:33:38;;;;;;;13.90;8.98;;;21.70;99.90;;;;;;5094927;28;20424;-60
2023/05/05 09:36:04;;;;;;;13.68;7.93;;;22.10;99.90;;;;;;5094947;28;20035;-60
2023/05/05 09:38:30;;;;;;;12.57;8.77;;;22.20;99.90;;;;;;5094857;28;20048;-59
2023/05/05 09:40:55;;;;;;;12.52;7.75;;;22.70;99.90;;;;;;5095009;28;20453;-60
2023/05/05 09:43:22;;;;;;;10.95;8.35;;;22.70;99.90;;;;;;5093663;28;20470;-59
2023/05/05 09:45:49;;;;;;;11.55;8.70;;;22.60;99.90;;;;;;5094940;28;20378;-59
2023/05/05 09:48:29;;;;;;;14.55;8.57;;;22.40;99.90;;;;;;5076379;28;20035;-60
2023/05/05 09:50:56;;;;;;;13.60;8.80;;;22.10;99.90;;;;;;5094551;28;20052;-59
2023/05/05 09:53:23;;;;;;;11.45;8.32;;;21.90;99.90;;;;;;5093693;28;20040;-60
2023/05/05 09:55:57;;;;;;;10.60;9.30;;;21.70;99.90;;;;;;5094647;28;20386;-60
2023/05/05 09:58:27;;;;;;;14.48;10.23;;;21.50;99.90;;;;;;5094534;28;20054;-59
2023/05/05 10:00:54;;;;;;;15.77;9.70;;;21.20;99.90;;;;;;5094508;28;20043;-59
2023/05/05 10:03:20;;;;;;;11.02;9.60;;;21.10;99.90;;;;;;5094016;28;20036;-59
2023/05/05 10:05:50;;;;;;;13.82;8.90;;;21.70;99.90;;;;;;5094156;28;20482;-59
2023/05/05 10:08:18;;;;;;;12.38;10.23;;;22.00;99.90;;;;;;5094225;28;20054;-59
2023/05/05 10:10:55;;;;;;;11.93;9.32;;;22.20;99.90;;;;;;5094056;28;20044;-59
2023/05/05 10:13:23;;;;;;;20.33;11.00;;;22.40;99.90;;;;;;5092772;28;20071;-59
2023/05/05 10:15:51;;;;;;;13.32;9.63;;;22.50;99.90;;;;;;5093070;28;20505;-59
2023/05/05 10:18:25;;;;;;;10.63;8.82;;;22.70;99.90;;;;;;5094306;28;20044;-60
2023/05/05 10:20:57;;;;;;;12.63;9.73;;;23.10;99.90;;;;;;5094242;28;20526;-60
2023/05/05 10:23:25;;;;;;;12.38;10.45;;;23.50;99.90;;;;;;5094125;28;20032;-59
2023/05/05 10:26:02;;;;;;;12.00;10.27;;;23.00;99.90;;;;;;5093559;28;20044;-60
2023/05/05 10:28:53;;;;;;;14.88;11.32;;;23.00;99.90;;;;;;5093700;28;20957;-60
2023/05/05 10:31:48;;;;;;;14.43;11.02;;;22.70;99.90;;;;;;5093552;28;20043;-59
2023/05/05 10:34:29;;;;;;;15.90;11.52;;;22.60;99.90;;;;;;5051284;28;20128;-60
2023/05/05 10:36:56;;;;;;;13.73;12.30;;;22.40;99.90;;;;;;5034551;28;20037;-60
2023/05/05 10:39:23;;;;;;;15.13;12.32;;;22.50;99.90;;;;;;5051107;28;20056;-60
2023/05/05 10:41:50;;;;;;;15.15;12.52;;;22.20;99.90;;;;;;5051036;28;20037;-60
2023/05/05 10:44:16;;;;;;;14.65;11.15;;;22.60;99.90;;;;;;5051419;28;20037;-60
2023/05/05 10:46:43;;;;;;;16.90;15.10;;;22.40;99.90;;;;;;5051204;28;20063;-61
2023/05/05 10:49:34;;;;;;;21.95;15.00;;;22.40;99.90;;;;;;5051044;28;20110;-60
2023/05/05 10:52:11;;;;;;;18.48;14.90;;;22.30;99.90;;;;;;4936819;29;20168;-60
2023/05/05 10:54:48;;;;;;;21.98;16.35;;;22.10;99.90;;;;;;4952801;29;20063;-61
2023/05/05 10:57:15;;;;;;;19.52;16.95;;;22.10;99.90;;;;;;4952883;29;20126;-61
2023/05/05 10:59:42;;;;;;;18.38;15.05;;;21.90;99.90;;;;;;4952900;29;20043;-59
2023/05/05 11:02:24;;;;;;;17.58;15.30;;;22.20;99.90;;;;;;4953171;29;20446;-60
2023/05/05 11:05:21;;;;;;;19.80;16.80;;;22.30;99.90;;;;;;4952878;28;20398;-59
2023/05/05 11:07:49;;;;;;;20.75;17.58;;;22.20;99.90;;;;;;4952833;29;20225;-59
2023/05/05 11:10:19;;;;;;;22.60;17.35;;;22.30;99.90;;;;;;4959813;28;20115;-60
2023/05/05 11:12:50;;;;;;;19.42;15.15;;;22.50;99.90;;;;;;5010829;28;20492;-59
2023/05/05 11:15:25;;;;;;;18.85;15.15;;;22.60;99.90;;;;;;4994600;28;20132;-60
2023/05/05 11:17:52;;;;;;;20.65;15.23;;;22.60;99.90;;;;;;5010948;28;20034;-59
2023/05/05 11:20:42;;;;;;;16.88;13.55;;;22.90;99.90;;;;;;5010885;28;20042;-59
2023/05/05 11:23:07;;;;;;;;;;;23.20;99.90;;;;;;5011453;28;20171;-60
2023/05/05 11:25:36;;;;;;;17.25;12.15;;;23.00;99.90;;;;;;5010986;28;20411;-60
2023/05/05 11:28:12;;;;;;;14.07;12.13;;;22.80;99.90;;;;;;5016678;28;20419;-59
2023/05/05 11:30:58;;;;;;;14.70;11.57;;;22.70;99.90;;;;;;5072475;28;20494;-60
2023/05/05 11:33:30;;;;;;;13.02;10.90;;;22.70;99.90;;;;;;5072964;28;20041;-60
2023/05/05 11:36:05;;;;;;;14.90;11.95;;;23.00;99.90;;;;;;5088092;28;20104;-59
2023/05/05 11:38:49;;;;;;;19.42;13.52;;;22.70;99.90;;;;;;5072473;28;20615;-59
2023/05/05 11:41:30;;;;;;;14.43;12.82;;;22.70;99.90;;;;;;5072588;28;20036;-60
2023/05/05 11:44:08;;;;;;;16.75;12.13;;;22.70;99.90;;;;;;5105181;28;20483;-59
2023/05/05 11:46:34;;;;;;;16.40;14.70;;;22.50;99.90;;;;;;5072588;28;20040;-59
2023/05/05 11:48:59;;;;;;;17.23;12.20;;;22.30;99.90;;;;;;5072274;28;20510;-60
2023/05/05 11:51:25;;;;;;;16.83;14.52;;;22.20;99.90;;;;;;5072483;28;20036;-60
2023/05/05 11:53:51;;;;;;;18.35;13.90;;;22.20;99.90;;;;;;5072842;28;20045;-60
2023/05/05 11:56:21;;;;;;;14.90;12.35;;;21.90;99.90;;;;;;5071648;28;20044;-60
2023/05/05 11:58:47;;;;;;;14.40;11.48;;;21.90;99.90;;;;;;5072369;28;20392;-60
2023/05/05 12:01:13;;;;;;;14.63;12.25;;;21.90;99.90;;;;;;5072749;28;20059;-59
2023/05/05 12:03:39;;;;;;;14.75;12.07;;;22.00;99.90;;;;;;5072273;28;20036;-60
2023/05/05 12:06:06;;;;;;;15.13;12.90;;;22.00;99.90;;;;;;5072440;28;20055;-60
2023/05/05 12:08:39;;;;;;;13.65;10.50;;;21.90;99.90;;;;;;5071465;28;20036;-60
2023/05/05 12:11:10;;;;;;;14.52;11.80;;;21.90;99.90;;;;;;5072423;28;20075;-60
2023/05/05 12:13:35;;;;;;;13.15;10.23;;;22.00;99.90;;;;;;5072524;28;20041;-59
2023/05/05 12:16:27;;;;;;;14.38;9.82;;;22.00;99.90;;;;;;5072347;28;20040;-59
2023/05/05 12:19:05;;;;;;;13.63;10.88;;;21.90;99.90;;;;;;5074981;28;20052;-60
2023/05/05 12:21:31;;;;;;;13.10;11.70;;;21.80;99.90;;;;;;5076545;28;20127;-59
2023/05/05 12:23:58;;;;;;;13.50;10.68;;;21.80;99.90;;;;;;5076435;28;20072;-59
2023/05/05 12:26:27;;;;;;;11.85;10.48;;;21.70;99.90;;;;;;5075828;28;20060;-59
2023/05/05 12:28:58;;;;;;;11.85;10.50;;;21.70;99.90;;;;;;5076380;28;20119;-59
2023/05/05 12:31:37;;;;;;;10.45;9.20;;;21.70;99.90;;;;;;5108815;28;20056;-60
2023/05/05 12:34:05;;;;;;;13.07;9.10;;;21.70;99.90;;;;;;5076097;28;20048;-59
2023/05/05 12:36:32;;;;;;;11.55;8.13;;;21.60;99.90;;;;;;5076039;28;20041;-61
2023/05/05 12:38:58;;;;;;;11.10;6.43;;;21.70;99.90;;;;;;5075832;28;20040;-59
2023/05/05 12:41:23;;;;;;;11.10;6.00;;;21.70;99.90;;;;;;5075724;28;20040;-60
2023/05/05 12:43:57;;;;;;;10.15;7.50;;;21.70;99.90;;;;;;5108489;28;20040;-59
2023/05/05 12:46:23;;;;;;;8.95;7.22;;;21.70;99.90;;;;;;5075982;28;20043;-60
2023/05/05 12:49:04;;;;;;;11.38;7.50;;;21.60;99.90;;;;;;5076053;28;20040;-59
2023/05/05 12:51:36;;;;;;;9.75;7.50;;;21.50;99.90;;;;;;5091171;28;20560;-60
2023/05/05 12:54:06;;;;;;;7.13;6.03;;;21.20;99.90;;;;;;5076062;28;20090;-59
2023/05/05 12:56:43;;;;;;;9.82;6.97;;;21.10;99.90;;;;;;5075316;28;20044;-59
2023/05/05 12:59:09;;;;;;;13.70;6.65;;;21.00;99.90;;;;;;5075621;28;20041;-59
2023/05/05 13:01:48;;;;;;;8.57;6.60;;;21.00;99.90;;;;;;5075198;28;20044;-60
2023/05/05 13:04:14;;;;;;;8.90;6.82;;;20.80;99.90;;;;;;5074379;28;20119;-60
2023/05/05 13:06:41;;;;;;;9.20;5.43;;;20.80;99.90;;;;;;5075325;28;20466;-59
2023/05/05 13:09:09;;;;;;;9.27;5.20;;;20.70;99.90;;;;;;5075651;28;20051;-59
2023/05/05 13:11:36;;;;;;;9.35;5.82;;;20.60;99.90;;;;;;5075409;28;20052;-59
2023/05/05 13:14:02;;;;;;;10.13;6.70;;;20.40;99.90;;;;;;5075414;28;20109;-59
2023/05/05 13:16:28;;;;;;;7.95;5.93;;;20.40;99.90;;;;;;5074879;28;20500;-59
2023/05/05 13:18:56;;;;;;;9.02;5.85;;;20.20;99.90;;;;;;5075221;28;20044;-60
2023/05/05 13:21:22;;;;;;;9.35;6.30;;;20.00;99.90;;;;;;5107729;28;20051;-59
2023/05/05 13:23:47;;;;;;;10.40;6.15;;;19.80;99.90;;;;;;5075260;28;20481;-59
2023/05/05 13:26:13;;;;;;;11.05;6.80;;;19.70;99.90;;;;;;5094524;28;20466;-59
2023/05/05 13:28:40;;;;;;;10.40;7.15;;;19.40;99.90;;;;;;5093938;28;20492;-59
2023/05/05 13:31:06;;;;;;;10.93;7.53;;;19.20;99.90;;;;;;5095319;28;20115;-59
2023/05/05 13:33:33;;;;;;;9.70;7.05;;;19.00;99.90;;;;;;5095400;28;20381;-60
2023/05/05 13:35:58;;;;;;;9.68;6.75;;;18.80;99.90;;;;;;5095089;28;20040;-59
2023/05/05 13:38:24;;;;;;;12.68;6.93;;;18.50;99.90;;;;;;5095160;28;20032;-58
2023/05/05 13:40:50;;;;;;;11.60;8.18;;;18.40;99.90;;;;;;5095042;28;20382;-58
2023/05/05 13:43:15;;;;;;;13.82;8.65;;;18.10;99.90;;;;;;5095340;28;20474;-58
2023/05/05 13:45:41;;;;;;;11.13;8.95;;;17.90;99.90;;;;;;5094709;28;20040;-58
2023/05/05 13:48:07;;;;;;;10.55;9.25;;;17.70;99.90;;;;;;5093779;28;20054;-58
2023/05/05 13:50:32;;;;;;;11.65;9.13;;;17.50;99.90;;;;;;5095110;28;20440;-58
2023/05/05 13:52:58;;;;;;;14.40;10.65;;;17.30;99.90;;;;;;5094327;28;20036;-59
2023/05/05 13:55:24;;;;;;;18.55;10.15;;;17.20;99.90;;;;;;5094652;28;20040;-58
2023/05/05 13:57:50;;;;;;;16.10;8.77;;;17.00;99.90;;;;;;5094604;28;20028;-59
2023/05/05 14:00:16;;;;;;;11.85;8.25;;;16.90;99.90;;;;;;5093282;28;20044;-59
2023/05/05 14:02:42;;;;;;;11.57;7.82;;;16.80;99.90;;;;;;5094603;28;20032;-59
2023/05/05 14:05:08;;;;;;;16.65;8.48;;;16.70;99.90;;;;;;5094492;28;20538;-59
2023/05/05 14:07:34;;;;;;;11.27;7.78;;;16.60;99.90;;;;;;5094502;28;20501;-59
2023/05/05 14:10:00;;;;;;;15.40;7.78;;;16.60;99.90;;;;;;5094468;28;20484;-59
2023/05/05 14:12:26;;;;;;;11.93;6.47;;;16.50;99.90;;;;;;5094233;28;20028;-59
2023/05/05 14:14:51;;;;;;;11.85;5.90;;;16.30;99.90;;;;;;5094092;28;20071;-59
2023/05/05 14:17:17;;;;;;;10.75;6.38;;;16.20;99.90;;;;;;5094211;28;20040;-59
2023/05/05 14:19:43;;;;;;;9.43;5.85;;;16.10;99.90;;;;;;5093888;28;20043;-59
2023/05/05 14:22:09;;;;;;;11.73;6.03;;;15.90;99.90;;;;;;5093992;28;20093;-59
2023/05/05 14:24:35;;;;;;;10.52;5.30;;;15.90;99.90;;;;;;5093734;28;20114;-60
2023/05/05 14:27:03;;;;;;;13.20;5.20;;;15.90;99.90;;;;;;5093684;28;20048;-60
2023/05/05 14:29:29;;;;;;;9.07;4.20;;;15.80;99.90;;;;;;5094216;28;20040;-60
2023/05/05 14:31:54;;;;;;;7.30;3.05;;;15.80;99.90;;;;;;5094059;28;20533;-60
2023/05/05 14:34:20;;;;;;;7.13;3.28;;;15.80;99.90;;;;;;5093731;28;20055;-60
2023/05/05 14:36:46;;;;;;;3.88;2.10;;;15.70;99.90;;;;;;5093512;28;20081;-60
2023/05/05 14:39:12;;;;;;;4.90;2.15;;;15.60;99.90;;;;;;5093533;28;20044;-61
2023/05/05 14:41:37;;;;;;;6.20;2.63;;;15.60;99.90;;;;;;5093941;28;20064;-61
2023/05/05 14:44:03;;;;;;;4.65;2.03;;;15.50;99.90;;;;;;5093874;28;20081;-60
2023/05/05 14:46:29;;;;;;;5.75;2.53;;;15.40;99.90;;;;;;5093691;28;20448;-60
2023/05/05 14:48:55;;;;;;;6.28;1.67;;;15.40;99.90;;;;;;5093816;28;20123;-58
2023/05/05 14:51:21;;;;;;;4.28;1.30;;;15.30;99.90;;;;;;5093509;28;20067;-59
2023/05/05 14:53:47;;;;;;;4.63;1.48;;;15.30;99.90;;;;;;5093669;28;20047;-59
2023/05/05 14:56:13;;;;;;;5.03;1.50;;;15.30;99.90;;;;;;5092267;28;20040;-59
2023/05/05 14:58:38;;;;;;;5.22;1.58;;;15.30;99.90;;;;;;5093925;28;20092;-59
2023/05/05 15:01:04;;;;;;;5.95;1.48;;;15.20;99.90;;;;;;5093693;28;20116;-59
2023/05/05 15:03:30;;;;;;;6.43;1.58;;;15.20;99.90;;;;;;5093593;28;20496;-59
2023/05/05 15:05:56;;;;;;;6.50;1.58;;;15.20;99.90;;;;;;5093633;28;20035;-59
2023/05/05 15:08:22;;;;;;;5.65;1.35;;;15.20;99.90;;;;;;5093311;28;20048;-59
2023/05/05 15:10:47;;;;;;;6.82;1.65;;;15.20;99.90;;;;;;5093333;28;20050;-59
2023/05/05 15:13:13;;;;;;;5.55;1.70;;;15.10;99.90;;;;;;5093410;28;20051;-59
2023/05/05 15:15:39;;;;;;;3.90;1.27;;;15.10;99.90;;;;;;5093530;28;20032;-59
2023/05/05 15:18:06;;;;;;;4.93;1.85;;;15.10;99.90;;;;;;5092216;28;20044;-59
2023/05/05 15:20:31;;;;;;;6.32;1.58;;;15.20;99.90;;;;;;5093547;28;20097;-59
2023/05/05 15:22:57;;;;;;;5.60;1.63;;;15.10;99.90;;;;;;5092753;28;20040;-59
2023/05/05 15:25:23;;;;;;;5.20;1.85;;;15.00;99.90;;;;;;5093017;28;20425;-59
2023/05/05 15:28:09;;;;;;;5.47;1.60;;;15.20;99.90;;;;;;5092674;28;20097;-59
2023/05/05 15:30:34;;;;;;;7.40;2.25;;;15.20;99.90;;;;;;5050337;28;20580;-59
2023/05/05 15:33:00;;;;;;;7.07;2.55;;;15.10;99.90;;;;;;5050396;28;20056;-59
2023/05/05 15:35:26;;;;;;;4.05;1.80;;;15.10;99.90;;;;;;5050319;28;20059;-59
2023/05/05 15:37:52;;;;;;;5.72;2.40;;;15.20;99.90;;;;;;5050542;28;20052;-59
2023/05/05 15:40:18;;;;;;;3.85;2.03;;;15.20;99.90;;;;;;5050472;28;20041;-59
2023/05/05 15:42:43;;;;;;;7.97;2.67;;;15.00;99.90;;;;;;5050179;28;20442;-59
2023/05/05 15:45:13;;;;;;;5.50;2.47;;;15.00;99.90;;;;;;5050471;28;20086;-59
2023/05/05 15:47:39;;;;;;;4.25;2.65;;;15.00;99.90;;;;;;5050540;28;20594;-59
2023/05/05 15:50:06;;;;;;;4.78;2.65;;;15.10;99.90;;;;;;5050314;28;20172;-59
2023/05/05 15:52:32;;;;;;;4.05;2.20;;;15.20;99.90;;;;;;5049613;28;20037;-59
2023/05/05 15:54:57;;;;;;;6.45;2.90;;;15.20;99.90;;;;;;5050376;28;20059;-59
2023/05/05 15:57:23;;;;;;;6.63;2.50;;;15.10;99.90;;;;;;5049931;28;20084;-58
2023/05/05 15:59:53;;;;;;;5.82;2.85;;;15.00;99.90;;;;;;5050085;28;20115;-58
2023/05/05 16:02:19;;;;;;;9.57;3.00;;;15.00;99.90;;;;;;5050053;28;20060;-58
2023/05/05 16:04:45;;;;;;;5.07;2.15;;;15.10;99.90;;;;;;5033533;28;20068;-59
2023/05/05 16:07:11;;;;;;;5.18;2.60;;;15.00;99.90;;;;;;5063208;28;20454;-59
2023/05/05 16:09:37;;;;;;;4.00;2.65;;;14.90;99.90;;;;;;5092702;28;20169;-59
2023/05/05 16:12:02;;;;;;;4.20;2.38;;;15.00;99.90;;;;;;5092826;28;20174;-59
2023/05/05 16:14:30;;;;;;;8.23;3.20;;;14.90;99.90;;;;;;5092793;28;20116;-59
2023/05/05 16:16:56;;;;;;;23.23;9.88;;;15.00;99.90;;;;;;5092018;28;20040;-59
2023/05/05 16:19:25;;;;;;;6.95;3.08;;;15.10;99.90;;;;;;5092484;28;20035;-60
2023/05/05 16:21:51;;;;;;;3.60;2.20;;;15.00;99.90;;;;;;5092516;28;20044;-59
2023/05/05 16:24:17;;;;;;;4.88;2.65;;;15.20;99.90;;;;;;5092162;28;20043;-60
2023/05/05 16:26:43;;;;;;;5.05;2.25;;;15.30;99.90;;;;;;5092265;28;20052;-60
2023/05/05 16:29:09;;;;;;;4.78;1.95;;;15.30;99.90;;;;;;5092164;28;20378;-60
2023/05/05 16:31:35;;;;;;;5.10;2.50;;;15.20;99.90;;;;;;5091988;28;20040;-60
2023/05/05 16:34:01;;;;;;;6.50;2.83;;;15.40;99.90;;;;;;5090778;28;20048;-60
2023/05/05 16:36:27;;;;;;;6.07;2.72;;;15.30;99.90;;;;;;5092245;28;20044;-60
2023/05/05 16:38:53;;;;;;;4.38;2.58;;;15.20;99.90;;;;;;5090961;28;20059;-60
2023/05/05 16:41:21;;;;;;;5.63;2.58;;;15.20;99.90;;;;;;5092068;28;20040;-59
2023/05/05 16:43:47;;;;;;;5.30;1.98;;;15.20;99.90;;;;;;5092311;28;20044;-59
2023/05/05 16:46:12;;;;;;;4.25;1.80;;;15.20;99.90;;;;;;5092051;28;20058;-59
2023/05/05 16:48:38;;;;;;;6.18;2.20;;;15.10;99.90;;;;;;5091997;28;20032;-60
2023/05/05 16:51:04;;;;;;;3.65;2.00;;;15.10;99.90;;;;;;5092082;28;20036;-59
2023/05/05 16:53:30;;;;;;;5.97;2.20;;;15.10;99.90;;;;;;5092237;28;20044;-59
2023/05/05 16:55:55;;;;;;;4.97;1.92;;;15.00;99.90;;;;;;5092241;28;20040;-60
2023/05/05 16:58:21;;;;;;;4.88;2.00;;;15.10;99.90;;;;;;5090400;28;20059;-60
2023/05/05 17:00:48;;;;;;;5.53;2.30;;;15.10;99.90;;;;;;5092306;28;20132;-59
2023/05/05 17:03:18;;;;;;;4.10;1.80;;;15.40;99.90;;;;;;5093638;28;20120;-59
2023/05/05 17:05:45;;;;;;;6.15;1.75;;;15.30;99.90;;;;;;5095763;28;20039;-59
2023/05/05 17:08:13;;;;;;;6.07;2.10;;;15.30;99.90;;;;;;5095795;28;20036;-59
2023/05/05 17:10:40;;;;;;;5.43;2.35;;;15.40;99.90;;;;;;5095395;28;20051;-60
2023/05/05 17:13:06;;;;;;;2.67;1.85;;;15.20;99.90;;;;;;5095090;28;20462;-59
2023/05/05 17:15:32;;;;;;;5.28;2.65;;;15.00;99.90;;;;;;5095413;28;20052;-60
2023/05/05 17:17:58;;;;;;;5.18;2.67;;;15.00;99.90;;;;;;5095048;28;20149;-59
2023/05/05 17:20:24;;;;;;;6.32;2.55;;;14.90;99.90;;;;;;5095482;28;20174;-59
2023/05/05 17:22:49;;;;;;;3.58;2.40;;;14.80;99.90;;;;;;5095170;28;20071;-59
2023/05/05 17:25:15;;;;;;;7.68;2.30;;;15.00;99.90;;;;;;5095451;28;20382;-59
2023/05/05 17:27:41;;;;;;;6.75;3.45;;;15.00;99.90;;;;;;5094547;28;20135;-60
2023/05/05 17:30:07;;;;;;;4.43;2.58;;;14.90;99.90;;;;;;5095045;28;20050;-59
2023/05/05 17:32:33;;;;;;;5.38;2.40;;;14.90;99.90;;;;;;5095085;28;20044;-59
2023/05/05 17:34:59;;;;;;;3.55;1.95;;;14.90;99.90;;;;;;5095309;28;20512;-59
2023/05/05 17:37:24;;;;;;;2.63;2.15;;;14.90;99.90;;;;;;5094338;28;20036;-59
2023/05/05 17:39:50;;;;;;;5.40;2.92;;;14.90;99.90;;;;;;5094921;28;20035;-59
2023/05/05 17:42:21;;;;;;;2.95;2.30;;;14.90;99.90;;;;;;5094514;28;20050;-59
2023/05/05 17:44:50;;;;;;;6.40;3.28;;;15.00;99.90;;;;;;5094748;28;20040;-59
2023/05/05 17:47:20;;;;;;;;;;;15.00;99.90;;;;;;5094823;28;20493;-59
2023/05/05 17:49:47;;;;;;;6.35;3.17;;;15.10;99.90;;;;;;5094361;28;19916;-59
2023/05/05 17:52:13;;;;;;;5.15;3.40;;;15.10;99.90;;;;;;5094735;28;20044;-59
2023/05/05 17:54:40;;;;;;;4.03;2.90;;;15.20;99.90;;;;;;5094422;28;20038;-59
2023/05/05 17:57:05;;;;;;;4.30;2.20;;;15.30;99.90;;;;;;5094081;28;20123;-58
2023/05/05 17:59:31;;;;;;;5.18;2.55;;;15.40;99.90;;;;;;5094550;28;20119;-59
2023/05/05 18:01:57;;;;;;;5.30;2.50;;;15.30;99.90;;;;;;5094196;28;20123;-58
2023/05/05 18:04:22;;;;;;;3.70;2.80;;;15.40;99.90;;;;;;5094226;28;20040;-59
2023/05/05 18:06:48;;;;;;;4.30;2.60;;;15.40;99.90;;;;;;5094412;28;20044;-59
2023/05/05 18:09:14;;;;;;;3.13;2.80;;;15.20;99.90;;;;;;5094522;28;20131;-58
2023/05/05 18:11:40;;;;;;;3.95;2.70;;;15.10;99.90;;;;;;5094280;28;20394;-59
2023/05/05 18:14:06;;;;;;;5.05;2.90;;;15.20;99.90;;;;;;5092427;28;20436;-59
2023/05/05 18:16:32;;;;;;;3.88;2.53;;;15.10;99.90;;;;;;5094206;28;20036;-59
2023/05/05 18:18:57;;;;;;;6.20;3.13;;;15.10;99.90;;;;;;5094212;28;20500;-59
2023/05/05 18:21:23;;;;;;;16.00;2.80;;;15.10;99.90;;;;;;5093848;28;20036;-58
2023/05/05 18:23:48;;;;;;;3.15;2.22;;;15.00;99.90;;;;;;5094161;28;20102;-59
2023/05/05 18:26:14;;;;;;;3.95;2.33;;;14.80;99.90;;;;;;5092150;28;20055;-59
2023/05/05 18:28:40;;;;;;;3.83;2.45;;;14.90;99.90;;;;;;5094081;28;20044;-59
2023/05/05 18:31:06;;;;;;;6.65;2.75;;;14.70;99.90;;;;;;5094180;28;20043;-59
2023/05/05 18:33:31;;;;;;;4.32;2.58;;;14.50;99.90;;;;;;5094179;28;20470;-58
2023/05/05 18:35:57;;;;;;;5.90;2.60;;;14.60;99.90;;;;;;5093881;28;20089;-59
2023/05/05 18:38:23;;;;;;;5.07;3.35;;;14.40;99.90;;;;;;5093182;28;20097;-58
2023/05/05 18:40:48;;;;;;;6.85;3.70;;;14.50;99.90;;;;;;5093828;28;20035;-59
2023/05/05 18:43:14;;;;;;;3.78;3.08;;;14.30;99.90;;;;;;5093529;28;20032;-59